createdAt,value
2023-04-16T00:02:17.892Z,8.14
2023-04-16T00:04:46.103Z,8.13
2023-04-16T00:07:14.077Z,8.13
2023-04-16T00:09:42.055Z,8.07
2023-04-16T00:12:10.053Z,8.11
2023-04-16T00:14:38.016Z,8.11
2023-04-16T00:17:07.375Z,8.11
2023-04-16T00:19:35.400Z,8.11
2023-04-16T00:22:03.562Z,8.08
2023-04-16T00:24:31.516Z,8.09
2023-04-16T00:26:59.453Z,8.11
2023-04-16T00:29:28.771Z,8.11
2023-04-16T00:31:56.846Z,8.05
2023-04-16T00:34:26.275Z,8.08
2023-04-16T00:36:54.254Z,8.07
2023-04-16T00:39:22.279Z,8.06
2023-04-16T00:41:50.670Z,8.07
2023-04-16T00:44:18.808Z,8.04
2023-04-16T00:46:47.325Z,8.05
2023-04-16T00:49:16.146Z,8.05
2023-04-16T00:51:45.663Z,8.08
2023-04-16T00:54:13.782Z,8.06
2023-04-16T00:56:41.885Z,8.02
2023-04-16T00:59:10.506Z,8.02
2023-04-16T01:01:38.854Z,8.03
2023-04-16T01:04:07.548Z,8.03
2023-04-16T01:06:35.665Z,8.04
2023-04-16T01:09:05.047Z,8.03
2023-04-16T01:11:33.013Z,8.04
2023-04-16T01:14:01.012Z,8.03
2023-04-16T01:16:29.035Z,8.03
2023-04-16T01:18:56.972Z,7.97
2023-04-16T01:21:26.576Z,8.02
2023-04-16T01:23:54.586Z,8.03
2023-04-16T01:26:22.709Z,7.98
2023-04-16T01:28:51.138Z,8.00
2023-04-16T01:31:19.176Z,8.02
2023-04-16T01:33:47.216Z,8.02
2023-04-16T01:36:15.484Z,8.00
2023-04-16T01:38:44.985Z,7.97
2023-04-16T01:41:12.973Z,7.98
2023-04-16T01:43:42.542Z,8.04
2023-04-16T01:46:16.408Z,8.03
2023-04-16T01:48:44.575Z,8.05
2023-04-16T01:51:12.672Z,8.02
2023-04-16T01:53:40.677Z,8.03
2023-04-16T01:56:10.247Z,8.03
2023-04-16T01:58:38.624Z,7.99
2023-04-16T02:01:06.969Z,8.03
2023-04-16T02:03:35.271Z,8.01
2023-04-16T02:06:03.387Z,7.97
2023-04-16T02:08:31.521Z,8.01
2023-04-16T02:10:59.660Z,8.03
2023-04-16T02:13:28.964Z,7.99
2023-04-16T02:15:58.711Z,7.96
2023-04-16T02:18:27.799Z,7.93
2023-04-16T02:21:01.246Z,7.98
2023-04-16T02:23:30.661Z,7.94
2023-04-16T02:26:01.796Z,7.96
2023-04-16T02:28:33.046Z,7.99
2023-04-16T02:31:03.794Z,7.96
2023-04-16T02:33:34.636Z,7.94
2023-04-16T02:36:07.381Z,7.94
2023-04-16T02:38:38.085Z,7.96
2023-04-16T02:41:07.411Z,7.96
2023-04-16T02:43:39.538Z,7.96
2023-04-16T02:46:11.500Z,7.95
2023-04-16T02:48:41.702Z,7.96
2023-04-16T02:51:11.554Z,7.96
2023-04-16T02:53:40.878Z,7.94
2023-04-16T02:56:11.089Z,7.99
2023-04-16T02:58:41.480Z,7.93
2023-04-16T03:01:10.620Z,7.98
2023-04-16T03:03:40.916Z,7.95
2023-04-16T03:06:10.832Z,7.93
2023-04-16T03:08:42.016Z,7.90
2023-04-16T03:11:13.423Z,7.93
2023-04-16T03:13:45.286Z,7.87
2023-04-16T03:16:14.228Z,7.93
2023-04-16T03:18:46.866Z,7.89
2023-04-16T03:21:17.042Z,7.92
2023-04-16T03:23:48.617Z,7.93
2023-04-16T03:26:18.366Z,7.93
2023-04-16T03:28:50.649Z,7.96
2023-04-16T03:31:21.191Z,7.93
2023-04-16T03:33:51.254Z,7.99
2023-04-16T03:36:23.770Z,7.96
2023-04-16T03:38:58.561Z,7.98
2023-04-16T03:41:29.159Z,7.96
2023-04-16T03:44:01.281Z,7.94
2023-04-16T03:46:31.618Z,7.98
2023-04-16T03:49:04.042Z,7.93
2023-04-16T03:51:35.049Z,7.96
2023-04-16T03:54:04.981Z,7.90
2023-04-16T03:56:35.437Z,7.98
2023-04-16T03:59:06.781Z,7.97
2023-04-16T04:01:37.124Z,7.95
2023-04-16T04:04:07.316Z,7.98
2023-04-16T04:06:37.044Z,7.93
2023-04-16T04:09:07.869Z,7.95
2023-04-16T04:11:37.806Z,7.93
2023-04-16T04:14:09.302Z,7.91
2023-04-16T04:16:39.887Z,7.93
2023-04-16T04:19:09.490Z,7.89
2023-04-16T04:21:39.042Z,7.91
2023-04-16T04:24:08.709Z,7.91
2023-04-16T04:26:39.048Z,7.91
2023-04-16T04:29:10.573Z,7.91
2023-04-16T04:31:40.138Z,7.88
2023-04-16T04:34:09.855Z,7.90
2023-04-16T04:36:39.261Z,7.87
2023-04-16T04:39:07.932Z,7.87
2023-04-16T04:41:36.366Z,7.97
2023-04-16T04:44:06.550Z,7.96
2023-04-16T04:46:36.160Z,7.98
2023-04-16T04:49:04.091Z,7.95
2023-04-16T04:51:32.137Z,7.89
2023-04-16T04:54:00.194Z,7.97
2023-04-16T04:56:28.267Z,7.96
2023-04-16T04:58:56.370Z,7.95
2023-04-16T05:01:24.525Z,7.97
2023-04-16T05:03:54.199Z,7.94
2023-04-16T05:06:22.251Z,7.94
2023-04-16T05:08:50.264Z,7.98
2023-04-16T05:11:18.256Z,7.96
2023-04-16T05:13:46.226Z,7.95
2023-04-16T05:16:15.350Z,7.90
2023-04-16T05:18:43.325Z,7.95
2023-04-16T05:21:12.723Z,7.92
2023-04-16T05:23:40.718Z,7.97
2023-04-16T05:26:08.716Z,7.94
2023-04-16T05:28:38.869Z,7.96
2023-04-16T05:31:10.855Z,7.95
2023-04-16T05:33:40.520Z,7.94
2023-04-16T05:36:09.785Z,7.90
2023-04-16T05:38:42.063Z,7.90
2023-04-16T05:41:12.025Z,7.89
2023-04-16T05:43:42.823Z,7.89
2023-04-16T05:46:12.829Z,7.95
2023-04-16T05:48:42.744Z,7.90
2023-04-16T05:51:14.359Z,7.92
2023-04-16T05:53:46.058Z,7.92
2023-04-16T05:56:15.868Z,7.97
2023-04-16T05:58:45.805Z,7.85
2023-04-16T06:01:14.911Z,7.96
2023-04-16T06:03:42.993Z,7.96
2023-04-16T06:06:11.210Z,7.98
2023-04-16T06:08:39.273Z,7.98
2023-04-16T06:11:11.595Z,7.99
2023-04-16T06:13:41.825Z,8.02
2023-04-16T06:16:11.813Z,8.04
2023-04-16T06:18:42.233Z,8.01
2023-04-16T06:21:10.989Z,8.02
2023-04-16T06:23:43.586Z,8.01
2023-04-16T06:26:15.273Z,8.08
2023-04-16T06:28:46.057Z,8.05
2023-04-16T06:31:16.498Z,8.04
2023-04-16T06:33:47.944Z,8.02
2023-04-16T06:36:18.715Z,7.99
2023-04-16T06:38:49.673Z,8.01
2023-04-16T06:41:24.034Z,7.98
2023-04-16T06:43:55.484Z,8.03
2023-04-16T06:46:26.631Z,8.01
2023-04-16T06:48:57.321Z,8.02
2023-04-16T06:51:29.866Z,7.99
2023-04-16T06:54:01.212Z,8.01
2023-04-16T06:56:33.182Z,8.03
2023-04-16T06:59:03.754Z,7.96
2023-04-16T07:01:33.461Z,8.00
2023-04-16T07:04:03.053Z,8.03
2023-04-16T07:06:32.830Z,8.04
2023-04-16T07:09:03.059Z,7.98
2023-04-16T07:11:35.351Z,8.04
2023-04-16T07:14:04.895Z,8.03
2023-04-16T07:16:32.939Z,8.07
2023-04-16T07:19:00.982Z,8.04
2023-04-16T07:21:28.962Z,8.03
2023-04-16T07:23:56.972Z,8.07
2023-04-16T07:26:24.956Z,8.05
2023-04-16T07:28:54.370Z,8.07
2023-04-16T07:31:22.563Z,8.10
2023-04-16T07:33:50.692Z,8.09
2023-04-16T07:36:18.689Z,8.05
2023-04-16T07:38:46.645Z,8.09
2023-04-16T07:41:20.554Z,8.09
2023-04-16T07:43:52.101Z,8.08
2023-04-16T07:46:30.483Z,8.05
2023-04-16T07:49:04.570Z,8.11
2023-04-16T07:51:32.633Z,8.16
2023-04-16T07:54:00.700Z,8.13
2023-04-16T07:56:29.056Z,8.15
2023-04-16T07:59:01.051Z,8.17
2023-04-16T08:01:34.903Z,8.16
2023-04-16T08:04:03.153Z,8.15
2023-04-16T08:06:31.928Z,8.23
2023-04-16T08:09:02.634Z,8.21
2023-04-16T08:11:30.791Z,8.19
2023-04-16T08:13:58.818Z,8.19
2023-04-16T08:16:26.915Z,8.19
2023-04-16T08:18:56.412Z,8.23
2023-04-16T08:21:24.799Z,8.21
2023-04-16T08:23:52.873Z,8.17
2023-04-16T08:26:21.070Z,8.20
2023-04-16T08:28:49.163Z,8.27
2023-04-16T08:31:17.597Z,8.27
2023-04-16T08:33:45.725Z,8.32
2023-04-16T08:36:15.516Z,8.30
2023-04-16T08:38:43.439Z,8.33
2023-04-16T08:41:15.100Z,8.33
2023-04-16T08:43:46.288Z,8.32
2023-04-16T08:46:14.555Z,8.33
2023-04-16T08:48:44.326Z,8.34
2023-04-16T08:51:17.076Z,8.39
2023-04-16T08:53:50.404Z,8.41
2023-04-16T08:56:22.457Z,8.34
2023-04-16T08:58:52.543Z,8.34
2023-04-16T09:01:24.217Z,8.37
2023-04-16T09:03:53.043Z,8.34
2023-04-16T09:06:22.939Z,8.37
2023-04-16T09:08:52.012Z,8.40
2023-04-16T09:11:20.206Z,8.37
2023-04-16T09:13:50.415Z,8.44
2023-04-16T09:16:19.004Z,8.44
2023-04-16T09:18:48.008Z,8.45
2023-04-16T09:21:16.792Z,8.43
2023-04-16T09:23:47.218Z,8.45
2023-04-16T09:26:17.664Z,8.45
2023-04-16T09:28:47.473Z,8.46
2023-04-16T09:31:17.293Z,8.46
2023-04-16T09:34:01.618Z,8.46
2023-04-16T09:36:30.035Z,8.48
2023-04-16T09:39:00.520Z,8.45
2023-04-16T09:41:30.276Z,8.53
2023-04-16T09:44:00.626Z,8.51
2023-04-16T09:46:32.673Z,8.47
2023-04-16T09:49:06.651Z,8.48
2023-04-16T09:51:39.056Z,8.48
2023-04-16T09:54:08.844Z,8.51
2023-04-16T09:56:42.041Z,8.53
2023-04-16T09:59:11.000Z,8.49
2023-04-16T10:01:39.702Z,8.50
2023-04-16T10:04:08.254Z,8.54
2023-04-16T10:06:36.380Z,8.54
2023-04-16T10:09:11.161Z,8.53
2023-04-16T10:11:40.728Z,8.59
2023-04-16T10:14:10.674Z,8.55
2023-04-16T10:16:41.245Z,8.52
2023-04-16T10:19:10.158Z,8.53
2023-04-16T10:21:38.638Z,8.52
2023-04-16T10:24:08.333Z,8.51
2023-04-16T10:26:38.075Z,8.50
2023-04-16T10:29:08.026Z,8.55
2023-04-16T10:31:37.002Z,8.52
2023-04-16T10:34:08.039Z,8.48
2023-04-16T10:36:41.512Z,8.49
2023-04-16T10:39:16.299Z,8.46
2023-04-16T10:41:46.870Z,8.48
2023-04-16T10:44:15.011Z,8.47
2023-04-16T10:46:44.094Z,8.43
2023-04-16T10:49:16.366Z,8.43
2023-04-16T10:51:56.383Z,8.40
2023-04-16T10:54:27.000Z,8.39
2023-04-16T10:56:58.750Z,8.38
2023-04-16T10:59:32.607Z,8.43
2023-04-16T11:02:02.531Z,8.48
2023-04-16T11:04:35.043Z,8.47
2023-04-16T11:07:05.584Z,8.45
2023-04-16T11:09:51.417Z,8.48
2023-04-16T11:12:22.473Z,8.42
2023-04-16T11:14:51.947Z,8.48
2023-04-16T11:17:22.889Z,8.47
2023-04-16T11:19:53.561Z,8.48
2023-04-16T11:22:21.992Z,8.49
2023-04-16T11:24:55.847Z,8.49
2023-04-16T11:27:26.530Z,8.50
2023-04-16T11:30:02.233Z,8.50
2023-04-16T11:32:33.044Z,8.53
2023-04-16T11:35:03.737Z,8.54
2023-04-16T11:37:35.780Z,8.49
2023-04-16T11:40:06.977Z,8.56
2023-04-16T11:42:38.273Z,8.59
2023-04-16T11:45:07.686Z,8.60
2023-04-16T11:47:45.253Z,8.61
2023-04-16T11:50:21.206Z,8.64
2023-04-16T11:52:50.569Z,8.68
2023-04-16T11:58:34.150Z,8.67
2023-04-16T12:01:52.340Z,8.71
2023-04-16T12:04:22.406Z,8.73
2023-04-16T12:07:12.710Z,8.68
2023-04-16T12:09:42.175Z,8.68
2023-04-16T12:12:30.876Z,8.67
2023-04-16T12:15:03.717Z,8.68
2023-04-16T12:17:33.307Z,8.71
2023-04-16T12:20:02.777Z,8.73
2023-04-16T12:22:34.671Z,8.75
2023-04-16T12:25:06.182Z,8.75
2023-04-16T12:27:50.701Z,8.75
2023-04-16T12:30:24.539Z,8.72
2023-04-16T12:33:13.508Z,8.77
2023-04-16T12:35:43.597Z,8.74
2023-04-16T12:38:12.165Z,8.81
2023-04-16T12:40:43.589Z,8.82
2023-04-16T12:43:12.082Z,8.80
2023-04-16T12:45:41.915Z,8.83
2023-04-16T12:48:10.325Z,8.79
2023-04-16T12:50:39.751Z,8.83
2023-04-16T12:53:07.807Z,8.82
2023-04-16T12:55:35.838Z,8.80
2023-04-16T12:58:03.947Z,8.84
2023-04-16T13:00:33.318Z,8.86
2023-04-16T13:03:02.977Z,8.84
2023-04-16T13:05:31.292Z,8.84
2023-04-16T13:07:59.381Z,8.83
2023-04-16T13:10:27.993Z,8.84
2023-04-16T13:12:57.523Z,8.88
2023-04-16T13:15:25.572Z,8.85
2023-04-16T13:17:53.618Z,8.85
2023-04-16T13:20:24.536Z,8.81
2023-04-16T13:22:52.793Z,8.92
2023-04-16T13:25:20.948Z,8.87
2023-04-16T13:27:49.070Z,8.86
2023-04-16T13:30:17.475Z,8.92
2023-04-16T13:32:45.610Z,8.88
2023-04-16T13:35:13.781Z,8.87
2023-04-16T13:37:45.751Z,8.85
2023-04-16T13:40:15.320Z,8.85
2023-04-16T13:42:43.889Z,8.88
2023-04-16T13:45:12.312Z,8.88
2023-04-16T13:47:42.611Z,8.95
2023-04-16T13:50:12.073Z,8.98
2023-04-16T13:52:40.062Z,8.97
2023-04-16T13:55:11.009Z,8.98
2023-04-16T13:57:39.054Z,8.94
2023-04-16T14:00:13.092Z,9.00
2023-04-16T14:02:42.601Z,9.01
2023-04-16T14:05:10.860Z,8.97
2023-04-16T14:07:39.408Z,9.01
2023-04-16T14:10:10.184Z,9.03
2023-04-16T14:12:40.744Z,9.02
2023-04-16T14:15:10.486Z,9.05
2023-04-16T14:17:38.715Z,9.05
2023-04-16T14:20:07.779Z,9.06
2023-04-16T14:22:35.833Z,9.09
2023-04-16T14:25:03.909Z,9.05
2023-04-16T14:27:34.188Z,9.06
2023-04-16T14:30:02.629Z,9.06
2023-04-16T14:32:30.805Z,9.03
2023-04-16T14:34:59.084Z,9.01
2023-04-16T14:37:27.759Z,9.04
2023-04-16T14:39:56.480Z,9.07
2023-04-16T14:42:24.731Z,9.04
2023-04-16T14:44:54.331Z,9.07
2023-04-16T14:47:23.073Z,9.10
2023-04-16T14:49:51.892Z,9.03
2023-04-16T14:52:20.063Z,9.05
2023-04-16T14:54:49.060Z,9.06
2023-04-16T14:57:17.863Z,9.07
2023-04-16T14:59:48.464Z,9.08
2023-04-16T15:02:18.501Z,9.10
2023-04-16T15:04:47.651Z,9.11
2023-04-16T15:07:16.990Z,9.14
2023-04-16T15:09:45.129Z,9.13
2023-04-16T15:12:13.796Z,9.18
2023-04-16T15:14:43.278Z,9.13
2023-04-16T15:17:11.609Z,9.16
2023-04-16T15:19:42.676Z,9.12
2023-04-16T15:22:10.860Z,9.19
2023-04-16T15:24:39.953Z,9.14
2023-04-16T15:27:11.182Z,9.15
2023-04-16T15:29:39.973Z,9.18
2023-04-16T15:32:08.200Z,9.18
2023-04-16T15:34:36.791Z,9.21
2023-04-16T15:37:06.276Z,9.19
2023-04-16T15:39:34.473Z,9.14
2023-04-16T15:42:04.560Z,9.13
2023-04-16T15:44:34.335Z,9.17
2023-04-16T15:47:03.357Z,9.17
2023-04-16T15:49:31.516Z,9.14
2023-04-16T15:52:00.271Z,9.14
2023-04-16T15:54:30.598Z,9.14
2023-04-16T15:56:58.855Z,9.14
2023-04-16T15:59:27.526Z,9.14
2023-04-16T16:01:55.983Z,9.10
2023-04-16T16:04:26.530Z,9.11
2023-04-16T16:06:56.188Z,9.11
2023-04-16T16:09:27.025Z,9.09
2023-04-16T16:11:59.962Z,9.11
2023-04-16T16:14:28.133Z,9.11
2023-04-16T16:16:56.425Z,9.09
2023-04-16T16:19:24.491Z,9.13
2023-04-16T16:21:52.636Z,9.09
2023-04-16T16:24:20.841Z,9.04
2023-04-16T16:26:49.012Z,9.07
2023-04-16T16:29:18.510Z,9.11
2023-04-16T16:31:46.753Z,9.04
2023-04-16T16:34:20.496Z,9.10
2023-04-16T16:36:49.731Z,9.10
2023-04-16T16:39:17.890Z,9.05
2023-04-16T16:41:45.928Z,9.08
2023-04-16T16:44:14.077Z,9.05
2023-04-16T16:46:43.656Z,9.08
2023-04-16T16:49:12.046Z,9.06
2023-04-16T16:51:40.410Z,9.06
2023-04-16T16:54:09.057Z,9.05
2023-04-16T16:56:37.063Z,9.04
2023-04-16T16:59:05.162Z,9.07
2023-04-16T17:01:33.658Z,9.04
2023-04-16T17:04:05.569Z,9.06
2023-04-16T17:06:33.909Z,9.10
2023-04-16T17:09:01.939Z,9.06
2023-04-16T17:11:29.975Z,9.09
2023-04-16T17:13:58.067Z,9.07
2023-04-16T17:16:26.416Z,9.06
2023-04-16T17:18:54.442Z,9.07
2023-04-16T17:21:23.913Z,9.08
2023-04-16T17:23:52.272Z,9.07
2023-04-16T17:26:20.524Z,9.10
2023-04-16T17:28:49.780Z,9.06
2023-04-16T17:31:18.422Z,9.04
2023-04-16T17:33:46.798Z,9.03
2023-04-16T17:36:14.800Z,9.03
2023-04-16T17:38:44.902Z,9.01
2023-04-16T17:41:13.074Z,9.05
2023-04-16T17:43:41.384Z,9.06
2023-04-16T17:46:12.092Z,9.06
2023-04-16T17:48:40.099Z,9.04
2023-04-16T17:51:12.067Z,9.07
2023-04-16T17:53:42.652Z,9.03
2023-04-16T17:56:12.158Z,9.01
2023-04-16T17:58:40.244Z,9.02
2023-04-16T18:01:08.242Z,8.97
2023-04-16T18:03:37.267Z,8.98
2023-04-16T18:06:07.880Z,9.01
2023-04-16T18:08:37.695Z,8.99
2023-04-16T18:11:08.333Z,8.95
2023-04-16T18:13:38.968Z,8.98
2023-04-16T18:16:14.719Z,9.03
2023-04-16T18:18:42.688Z,9.00
2023-04-16T18:21:10.690Z,9.03
2023-04-16T18:23:38.948Z,9.04
2023-04-16T18:26:08.450Z,9.00
2023-04-16T18:28:39.010Z,8.99
2023-04-16T18:31:10.101Z,9.04
2023-04-16T18:33:55.550Z,9.05
2023-04-16T18:36:26.160Z,8.97
2023-04-16T18:41:27.738Z,8.97
2023-04-16T18:43:57.101Z,8.95
2023-04-16T18:46:25.383Z,8.97
2023-04-16T18:48:54.772Z,8.97
2023-04-16T18:51:22.809Z,8.94
2023-04-16T18:53:50.799Z,8.97
2023-04-16T18:56:19.052Z,8.96
2023-04-16T18:58:47.798Z,8.91
2023-04-16T19:01:18.010Z,8.94
2023-04-16T19:03:46.523Z,8.93
2023-04-16T19:06:14.519Z,8.93
2023-04-16T19:08:43.055Z,8.90
2023-04-16T19:11:12.081Z,8.97
2023-04-16T19:13:41.306Z,8.93
2023-04-16T19:16:11.653Z,8.93
2023-04-16T19:18:41.233Z,8.96
2023-04-16T19:21:10.870Z,9.01
2023-04-16T19:23:38.980Z,8.93
2023-04-16T19:26:07.045Z,8.93
2023-04-16T19:28:35.018Z,8.93
2023-04-16T19:31:03.242Z,8.97
2023-04-16T19:33:33.685Z,8.92
2023-04-16T19:36:03.111Z,8.89
2023-04-16T19:38:32.596Z,8.86
2023-04-16T19:41:00.731Z,8.85
2023-04-16T19:43:31.197Z,8.83
2023-04-16T19:46:02.313Z,8.83
2023-04-16T19:48:30.483Z,8.85
2023-04-16T19:51:02.196Z,8.81
2023-04-16T19:53:31.621Z,8.84
2023-04-16T19:56:02.181Z,8.82
2023-04-16T19:58:30.919Z,8.82
2023-04-16T20:00:58.970Z,8.83
2023-04-16T20:03:27.170Z,8.81
2023-04-16T20:05:57.779Z,8.82
2023-04-16T20:08:30.680Z,8.85
2023-04-16T20:11:00.370Z,8.82
2023-04-16T20:13:28.299Z,8.79
2023-04-16T20:15:56.447Z,8.83
2023-04-16T20:18:27.006Z,8.83
2023-04-16T20:20:57.447Z,8.82
2023-04-16T20:23:25.492Z,8.82
2023-04-16T20:25:54.892Z,8.82
2023-04-16T20:28:26.869Z,8.80
2023-04-16T20:30:55.148Z,8.84
2023-04-16T20:33:23.145Z,8.81
2023-04-16T20:35:52.313Z,8.84
2023-04-16T20:38:23.775Z,8.90
2023-04-16T20:40:58.215Z,8.89
2023-04-16T20:43:29.809Z,8.86
2023-04-16T20:45:57.993Z,8.85
2023-04-16T20:48:26.155Z,8.86
2023-04-16T20:50:59.587Z,8.86
2023-04-16T20:53:27.886Z,8.88
2023-04-16T20:55:55.979Z,8.87
2023-04-16T20:58:24.024Z,8.83
2023-04-16T21:00:54.195Z,8.83
2023-04-16T21:03:22.848Z,8.82
2023-04-16T21:05:51.459Z,8.79
2023-04-16T21:08:21.249Z,8.79
2023-04-16T21:10:49.780Z,8.78
2023-04-16T21:13:18.678Z,8.78
2023-04-16T21:15:46.737Z,8.77
2023-04-16T21:18:17.064Z,8.78
2023-04-16T21:20:45.645Z,8.77
2023-04-16T21:23:13.779Z,8.78
2023-04-16T21:25:41.800Z,8.78
2023-04-16T21:28:09.797Z,8.76
2023-04-16T21:30:38.290Z,8.74
2023-04-16T21:33:06.703Z,8.74
2023-04-16T21:35:36.492Z,8.80
2023-04-16T21:38:04.422Z,8.75
2023-04-16T21:40:32.394Z,8.76
2023-04-16T21:43:00.380Z,8.75
2023-04-16T21:45:30.068Z,8.74
2023-04-16T21:47:58.664Z,8.73
2023-04-16T21:50:26.743Z,8.72
2023-04-16T21:52:56.092Z,8.75
2023-04-16T21:55:24.544Z,8.75
2023-04-16T21:57:52.490Z,8.73
2023-04-16T22:00:21.277Z,8.75
2023-04-16T22:02:49.478Z,8.73
2023-04-16T22:05:17.780Z,8.75
2023-04-16T22:07:45.764Z,8.72
2023-04-16T22:10:15.424Z,8.71
2023-04-16T22:12:44.908Z,8.72
2023-04-16T22:15:14.162Z,8.70
2023-04-16T22:17:42.390Z,8.67
2023-04-16T22:20:12.898Z,8.67
2023-04-16T22:22:41.181Z,8.65
2023-04-16T22:25:10.109Z,8.63
2023-04-16T22:27:39.644Z,8.68
2023-04-16T22:30:09.286Z,8.65
2023-04-16T22:32:37.293Z,8.65
2023-04-16T22:35:05.766Z,8.66
2023-04-16T22:37:33.945Z,8.64
2023-04-16T22:40:02.060Z,8.64
2023-04-16T22:42:30.096Z,8.63
2023-04-16T22:44:59.867Z,8.60
2023-04-16T22:47:28.188Z,8.67
2023-04-16T22:49:56.155Z,8.61
2023-04-16T22:52:24.144Z,8.62
2023-04-16T22:54:52.043Z,8.61
2023-04-16T22:57:22.850Z,8.60
2023-04-16T22:59:50.905Z,8.59
2023-04-16T23:02:20.723Z,8.59
2023-04-16T23:04:48.826Z,8.59
2023-04-16T23:07:17.040Z,8.61
2023-04-16T23:09:45.057Z,8.64
2023-04-16T23:12:13.070Z,8.63
2023-04-16T23:14:46.079Z,8.61
2023-04-16T23:17:14.393Z,8.61
2023-04-16T23:19:43.992Z,8.59
2023-04-16T23:22:15.122Z,8.56
2023-04-16T23:24:46.168Z,8.56
2023-04-16T23:27:15.100Z,8.59
2023-04-16T23:29:43.102Z,8.58
2023-04-16T23:32:11.177Z,8.65
2023-04-16T23:34:39.134Z,8.62
2023-04-16T23:37:08.539Z,8.62
2023-04-16T23:39:36.846Z,8.61
2023-04-16T23:42:05.006Z,8.58
2023-04-16T23:44:33.137Z,8.59
2023-04-16T23:47:01.278Z,8.59
2023-04-16T23:49:30.035Z,8.61
2023-04-16T23:51:58.017Z,8.60
2023-04-16T23:54:27.558Z,8.60
2023-04-16T23:56:57.099Z,8.61
2023-04-16T23:59:25.259Z,8.64
